createdAt,value
2018-04-02T00:01:01.765Z,29.20
2018-04-02T00:04:05.551Z,29.10
2018-04-02T00:07:09.323Z,29.00
2018-04-02T00:10:13.158Z,29.00
2018-04-02T00:13:16.948Z,28.70
2018-04-02T00:16:21.491Z,28.70
2018-04-02T00:19:25.983Z,28.70
2018-04-02T00:22:29.757Z,28.70
2018-04-02T00:25:33.651Z,28.90
2018-04-02T00:28:37.414Z,28.60
2018-04-02T00:31:41.178Z,28.70
2018-04-02T00:34:44.905Z,28.70
2018-04-02T00:37:48.670Z,28.60
2018-04-02T00:40:53.185Z,28.50
2018-04-02T00:43:56.922Z,28.50
2018-04-02T00:47:01.434Z,28.30
2018-04-02T00:50:05.190Z,28.20
2018-04-02T00:53:09.726Z,28.10
2018-04-02T00:56:14.250Z,28.20
2018-04-02T00:59:18.000Z,28.10
2018-04-02T01:02:22.559Z,28.20
2018-04-02T01:05:26.283Z,28.10
2018-04-02T01:08:30.036Z,28.10
2018-04-02T01:11:33.811Z,28.00
2018-04-02T01:14:38.515Z,28.00
2018-04-02T01:17:42.385Z,27.90
2018-04-02T01:20:46.146Z,27.90
2018-04-02T01:23:49.894Z,27.80
2018-04-02T01:26:53.647Z,27.70
2018-04-02T01:29:58.142Z,27.70
2018-04-02T01:33:01.895Z,27.70
2018-04-02T01:36:05.654Z,27.60
2018-04-02T01:39:09.471Z,27.80
2018-04-02T01:42:13.236Z,27.50
2018-04-02T01:45:17.019Z,27.40
2018-04-02T01:48:20.782Z,27.40
2018-04-02T01:51:24.532Z,27.70
2018-04-02T01:54:28.287Z,27.80
2018-04-02T01:57:32.044Z,27.80
2018-04-02T02:00:36.235Z,27.70
2018-04-02T02:03:40.156Z,27.50
2018-04-02T02:06:44.646Z,27.40
2018-04-02T02:09:48.394Z,27.40
2018-04-02T02:12:52.150Z,27.40
2018-04-02T02:15:55.878Z,27.50
2018-04-02T02:18:59.629Z,27.50
2018-04-02T02:22:03.398Z,27.50
2018-04-02T02:25:07.935Z,27.90
2018-04-02T02:28:11.708Z,27.50
2018-04-02T02:31:15.440Z,27.40
2018-04-02T02:34:19.195Z,27.40
2018-04-02T02:37:22.926Z,27.40
2018-04-02T02:40:27.443Z,27.50
2018-04-02T02:43:31.207Z,27.40
2018-04-02T02:46:35.741Z,27.40
2018-04-02T02:49:40.259Z,27.40
2018-04-02T02:52:43.995Z,27.40
2018-04-02T02:55:48.516Z,27.40
2018-04-02T02:58:52.276Z,27.40
2018-04-02T03:01:56.004Z,27.30
2018-04-02T03:04:59.761Z,27.40
2018-04-02T03:08:03.497Z,27.50
2018-04-02T03:11:07.267Z,27.40
2018-04-02T03:14:11.043Z,27.40
2018-04-02T03:17:14.771Z,27.80
2018-04-02T03:20:18.519Z,27.80
2018-04-02T03:23:23.024Z,27.60
2018-04-02T03:26:26.767Z,27.60
2018-04-02T03:29:30.528Z,27.80
2018-04-02T03:32:34.251Z,27.60
2018-04-02T03:35:38.014Z,27.50
2018-04-02T03:38:41.755Z,27.70
2018-04-02T03:41:45.504Z,27.90
2018-04-02T03:44:49.991Z,27.20
2018-04-02T03:47:53.737Z,27.20
2018-04-02T03:50:57.491Z,27.30
2018-04-02T03:54:02.033Z,27.30
2018-04-02T03:57:05.793Z,27.20
2018-04-02T04:00:09.549Z,27.30
2018-04-02T04:03:13.299Z,27.30
2018-04-02T04:06:17.814Z,27.40
2018-04-02T04:09:21.550Z,27.30
2018-04-02T04:12:25.341Z,27.40
2018-04-02T04:15:29.934Z,27.60
2018-04-02T04:18:33.715Z,27.60
2018-04-02T04:21:38.421Z,27.80
2018-04-02T04:24:43.204Z,27.70
2018-04-02T04:27:47.718Z,27.80
2018-04-02T04:30:51.474Z,27.70
2018-04-02T04:33:55.991Z,27.80
2018-04-02T04:36:59.765Z,27.80
2018-04-02T04:40:03.499Z,27.70
2018-04-02T04:43:07.281Z,27.70
2018-04-02T04:46:11.824Z,27.50
2018-04-02T04:49:16.369Z,27.60
2018-04-02T04:52:20.124Z,27.60
2018-04-02T04:55:23.923Z,27.70
2018-04-02T04:58:27.694Z,27.60
2018-04-02T05:01:31.427Z,27.60
2018-04-02T05:04:35.188Z,27.60
2018-04-02T05:07:38.917Z,27.50
2018-04-02T05:10:42.668Z,27.50
2018-04-02T05:13:46.430Z,27.60
2018-04-02T05:16:50.279Z,27.70
2018-04-02T05:19:54.031Z,27.50
2018-04-02T05:22:57.903Z,27.80
2018-04-02T05:26:02.427Z,27.80
2018-04-02T05:29:06.285Z,27.80
2018-04-02T05:32:10.788Z,27.80
2018-04-02T05:35:14.538Z,27.80
2018-04-02T05:38:19.057Z,27.70
2018-04-02T05:41:22.841Z,27.70
2018-04-02T05:44:26.672Z,27.70
2018-04-02T05:47:30.462Z,27.50
2018-04-02T05:50:34.987Z,27.40
2018-04-02T05:53:39.543Z,27.60
2018-04-02T05:56:43.300Z,27.40
2018-04-02T05:59:47.078Z,27.40
2018-04-02T06:02:51.574Z,27.40
2018-04-02T06:05:55.346Z,27.40
2018-04-02T06:08:59.999Z,27.40
2018-04-02T06:12:04.509Z,27.40
2018-04-02T06:15:08.270Z,27.40
2018-04-02T06:18:12.009Z,27.40
2018-04-02T06:21:15.814Z,27.40
2018-04-02T06:24:19.574Z,27.70
2018-04-02T06:27:23.357Z,27.80
2018-04-02T06:30:27.899Z,27.90
2018-04-02T06:33:31.808Z,27.90
2018-04-02T06:36:36.339Z,28.10
2018-04-02T06:39:40.106Z,27.90
2018-04-02T06:42:43.908Z,27.90
2018-04-02T06:45:48.457Z,28.00
2018-04-02T06:48:52.184Z,28.00
2018-04-02T06:51:55.955Z,27.90
2018-04-02T06:54:59.696Z,27.60
2018-04-02T06:58:04.275Z,28.00
2018-04-02T07:01:08.032Z,27.90
2018-04-02T07:04:11.770Z,28.00
2018-04-02T07:07:15.538Z,28.00
2018-04-02T07:10:19.289Z,28.10
2018-04-02T07:13:23.015Z,28.00
2018-04-02T07:16:26.769Z,28.10
2018-04-02T07:19:30.523Z,28.60
2018-04-02T07:22:34.287Z,28.80
2018-04-02T07:25:38.066Z,28.30
2018-04-02T07:28:42.555Z,28.20
2018-04-02T07:31:46.397Z,28.10
2018-04-02T07:34:50.906Z,27.80
2018-04-02T07:37:54.675Z,27.80
2018-04-02T07:40:59.342Z,27.50
2018-04-02T07:44:03.893Z,27.50
2018-04-02T07:47:07.701Z,27.50
2018-04-02T07:50:12.199Z,27.30
2018-04-02T07:53:15.961Z,27.30
2018-04-02T07:56:20.477Z,27.90
2018-04-02T07:59:24.212Z,27.90
2018-04-02T08:02:28.777Z,27.40
2018-04-02T08:05:33.355Z,27.40
2018-04-02T08:08:37.147Z,27.90
2018-04-02T08:11:41.643Z,27.40
2018-04-02T08:14:45.395Z,27.40
2018-04-02T08:17:49.913Z,27.00
2018-04-02T08:20:53.642Z,26.90
2018-04-02T08:23:57.440Z,27.00
2018-04-02T08:27:01.196Z,27.30
2018-04-02T08:30:05.702Z,26.90
2018-04-02T08:33:09.471Z,26.90
2018-04-02T08:36:13.290Z,25.70
2018-04-02T08:39:17.815Z,26.40
2018-04-02T08:42:21.672Z,26.30
2018-04-02T08:45:25.524Z,26.50
2018-04-02T08:48:29.329Z,26.60
2018-04-02T08:51:33.065Z,27.00
2018-04-02T08:54:36.865Z,27.40
2018-04-02T08:57:40.642Z,27.00
2018-04-02T09:00:44.453Z,26.90
2018-04-02T09:03:48.275Z,27.10
2018-04-02T09:06:52.014Z,27.20
2018-04-02T09:09:56.440Z,27.50
2018-04-02T09:13:00.321Z,27.00
2018-04-02T09:16:04.818Z,27.40
2018-04-02T09:19:08.580Z,27.30
2018-04-02T09:22:13.087Z,27.40
2018-04-02T09:25:16.859Z,27.40
2018-04-02T09:28:20.612Z,27.60
2018-04-02T09:31:24.364Z,27.30
2018-04-02T09:34:28.218Z,27.10
2018-04-02T09:37:32.726Z,27.10
2018-04-02T09:40:36.481Z,27.10
2018-04-02T09:43:41.000Z,27.30
2018-04-02T09:46:44.723Z,27.40
2018-04-02T09:49:48.475Z,27.50
2018-04-02T09:52:52.291Z,27.00
2018-04-02T09:55:56.857Z,27.00
2018-04-02T09:59:00.830Z,27.00
2018-04-02T10:02:09.887Z,26.60
2018-04-02T10:05:13.653Z,26.10
2018-04-02T10:08:17.407Z,26.10
2018-04-02T10:11:21.216Z,26.80
2018-04-02T10:14:24.973Z,27.00
2018-04-02T10:17:28.705Z,27.20
2018-04-02T10:20:32.480Z,27.30
2018-04-02T10:23:36.211Z,26.80
2018-04-02T10:26:39.973Z,26.70
2018-04-02T10:29:43.738Z,26.90
2018-04-02T10:32:47.491Z,27.00
2018-04-02T10:35:51.259Z,27.40
2018-04-02T10:38:55.792Z,27.00
2018-04-02T10:42:00.330Z,27.10
2018-04-02T10:45:04.871Z,27.40
2018-04-02T10:48:09.379Z,27.10
2018-04-02T10:51:13.125Z,27.10
2018-04-02T10:54:16.856Z,26.80
2018-04-02T10:57:20.599Z,27.00
2018-04-02T11:00:24.367Z,26.50
2018-04-02T11:03:28.146Z,26.60
2018-04-02T11:06:32.838Z,26.60
2018-04-02T11:09:36.590Z,26.60
2018-04-02T11:12:40.424Z,27.10
2018-04-02T11:15:44.210Z,27.60
2018-04-02T11:18:47.957Z,26.90
2018-04-02T11:21:51.707Z,27.50
2018-04-02T11:24:55.457Z,27.60
2018-04-02T11:27:59.259Z,27.00
2018-04-02T11:31:03.047Z,27.80
2018-04-02T11:34:07.117Z,27.30
2018-04-02T11:37:10.886Z,27.80
2018-04-02T11:40:14.626Z,27.80
2018-04-02T11:43:18.381Z,27.40
2018-04-02T11:46:22.144Z,27.60
2018-04-02T11:49:25.906Z,26.20
2018-04-02T11:52:30.459Z,25.50
2018-04-02T11:55:34.973Z,25.20
2018-04-02T11:58:38.752Z,25.30
2018-04-02T12:01:42.536Z,25.10
2018-04-02T12:04:47.030Z,24.90
2018-04-02T12:07:50.792Z,24.80
2018-04-02T12:10:54.519Z,24.60
2018-04-02T12:13:59.042Z,24.30
2018-04-02T12:17:02.794Z,24.30
2018-04-02T12:20:07.282Z,24.80
2018-04-02T12:23:11.038Z,24.70
2018-04-02T12:26:14.767Z,24.70
2018-04-02T12:29:19.284Z,24.50
2018-04-02T12:32:23.037Z,24.50
2018-04-02T12:35:26.796Z,24.50
2018-04-02T12:38:30.572Z,24.80
2018-04-02T12:41:34.642Z,25.00
2018-04-02T12:44:38.504Z,25.30
2018-04-02T12:47:42.285Z,25.00
2018-04-02T12:50:46.014Z,25.20
2018-04-02T12:53:49.766Z,24.90
2018-04-02T12:56:53.501Z,24.70
2018-04-02T12:59:57.282Z,24.70
2018-04-02T13:03:01.056Z,24.70
2018-04-02T13:06:04.779Z,24.70
2018-04-02T13:09:08.534Z,24.70
2018-04-02T13:12:12.264Z,24.80
2018-04-02T13:15:16.014Z,24.70
2018-04-02T13:18:19.765Z,24.70
2018-04-02T13:21:23.658Z,24.70
2018-04-02T13:24:27.422Z,24.70
2018-04-02T13:27:31.946Z,24.90
2018-04-02T13:30:35.694Z,24.90
2018-04-02T13:33:40.230Z,25.30
2018-04-02T13:36:44.724Z,25.60
2018-04-02T13:39:48.484Z,25.50
2018-04-02T13:42:52.219Z,25.90
2018-04-02T13:45:56.778Z,26.30
2018-04-02T13:49:00.540Z,26.30
2018-04-02T13:52:04.428Z,26.10
2018-04-02T13:55:08.219Z,25.70
2018-04-02T13:58:11.945Z,25.40
2018-04-02T14:01:15.700Z,25.30
2018-04-02T14:04:19.495Z,25.20
2018-04-02T14:07:23.233Z,25.30
2018-04-02T14:10:27.031Z,25.40
2018-04-02T14:13:30.763Z,25.40
2018-04-02T14:16:34.546Z,25.20
2018-04-02T14:19:38.304Z,25.20
2018-04-02T14:22:42.035Z,25.20
2018-04-02T14:25:45.789Z,25.20
2018-04-02T14:28:49.526Z,25.30
2018-04-02T14:31:53.275Z,25.20
2018-04-02T14:34:57.036Z,25.70
2018-04-02T14:38:01.587Z,25.50
2018-04-02T14:41:06.105Z,25.50
2018-04-02T14:44:17.627Z,25.50
2018-04-02T14:47:21.375Z,26.20
2018-04-02T14:50:25.134Z,26.00
2018-04-02T14:53:28.856Z,26.00
2018-04-02T14:56:32.608Z,25.60
2018-04-02T14:59:36.334Z,25.60
2018-04-02T15:02:40.103Z,25.40
2018-04-02T15:05:43.855Z,25.20
2018-04-02T15:08:47.592Z,25.10
2018-04-02T15:11:51.361Z,25.20
2018-04-02T15:14:55.107Z,25.10
2018-04-02T15:17:58.898Z,25.10
2018-04-02T15:21:03.588Z,25.00
2018-04-02T15:24:07.393Z,24.90
2018-04-02T15:27:11.142Z,24.90
2018-04-02T15:30:14.869Z,24.90
2018-04-02T15:33:18.620Z,25.10
2018-04-02T15:36:23.165Z,26.10
2018-04-02T15:39:26.900Z,25.50
2018-04-02T15:42:31.443Z,26.20
2018-04-02T15:45:36.022Z,26.30
2018-04-02T15:48:39.839Z,26.20
2018-04-02T15:51:43.597Z,27.00
2018-04-02T15:54:47.321Z,26.40
2018-04-02T15:57:51.074Z,26.40
2018-04-02T16:00:55.586Z,26.00
2018-04-02T16:03:59.351Z,26.00
2018-04-02T16:07:03.125Z,25.80
2018-04-02T16:10:06.860Z,25.60
2018-04-02T16:13:11.394Z,25.50
2018-04-02T16:16:15.191Z,25.40
2018-04-02T16:19:19.666Z,25.30
2018-04-02T16:22:24.212Z,25.30
2018-04-02T16:25:27.975Z,25.20
2018-04-02T16:28:31.733Z,25.20
2018-04-02T16:31:35.461Z,25.40
2018-04-02T16:34:39.229Z,25.20
2018-04-02T16:37:42.996Z,25.50
2018-04-02T16:40:46.719Z,25.80
2018-04-02T16:43:50.491Z,26.00
2018-04-02T16:46:54.216Z,26.40
2018-04-02T16:49:58.006Z,26.40
2018-04-02T16:53:01.768Z,26.70
2018-04-02T16:56:05.492Z,26.80
2018-04-02T16:59:09.251Z,27.10
2018-04-02T17:02:12.983Z,26.90
2018-04-02T17:05:16.742Z,26.70
2018-04-02T17:08:20.508Z,26.60
2018-04-02T17:11:24.243Z,26.70
2018-04-02T17:14:28.012Z,26.50
2018-04-02T17:17:31.747Z,26.10
2018-04-02T17:20:35.501Z,25.90
2018-04-02T17:23:39.252Z,25.60
2018-04-02T17:26:42.978Z,25.50
2018-04-02T17:29:46.738Z,25.50
2018-04-02T17:32:50.464Z,25.50
2018-04-02T17:35:54.219Z,25.50
2018-04-02T17:38:57.998Z,25.80
2018-04-02T17:42:01.732Z,25.60
2018-04-02T17:45:05.489Z,26.00
2018-04-02T17:48:09.230Z,26.10
2018-04-02T17:51:12.989Z,26.10
2018-04-02T17:54:16.746Z,26.20
2018-04-02T17:57:20.479Z,26.30
2018-04-02T18:00:24.255Z,26.50
2018-04-02T18:03:28.763Z,26.70
2018-04-02T18:06:32.514Z,26.70
2018-04-02T18:09:37.030Z,27.20
2018-04-02T18:12:40.759Z,27.20
2018-04-02T18:15:45.274Z,27.20
2018-04-02T18:18:49.013Z,27.20
2018-04-02T18:21:52.763Z,27.20
2018-04-02T18:24:56.571Z,27.60
2018-04-02T18:28:00.360Z,27.60
2018-04-02T18:31:04.083Z,27.50
2018-04-02T18:34:07.810Z,27.50
2018-04-02T18:37:11.561Z,27.50
2018-04-02T18:40:16.084Z,27.60
2018-04-02T18:43:19.811Z,27.60
2018-04-02T18:46:23.597Z,27.60
2018-04-02T18:49:27.370Z,27.70
2018-04-02T18:52:31.904Z,27.60
2018-04-02T18:55:35.659Z,27.60
2018-04-02T18:58:39.435Z,27.80
2018-04-02T19:01:43.169Z,27.60
2018-04-02T19:04:46.891Z,27.50
2018-04-02T19:07:50.678Z,27.60
2018-04-02T19:10:54.475Z,27.70
2018-04-02T19:13:58.967Z,27.80
2018-04-02T19:17:02.748Z,27.80
2018-04-02T19:20:06.499Z,27.80
2018-04-02T19:23:10.281Z,28.70
2018-04-02T19:26:14.030Z,28.20
2018-04-02T19:29:17.773Z,28.20
2018-04-02T19:32:21.541Z,28.10
2018-04-02T19:35:26.148Z,28.00
2018-04-02T19:38:29.934Z,28.00
2018-04-02T19:41:33.712Z,27.90
2018-04-02T19:44:37.439Z,27.90
2018-04-02T19:47:41.982Z,27.80
2018-04-02T19:50:45.751Z,27.80
2018-04-02T19:53:49.522Z,27.90
2018-04-02T19:56:53.274Z,27.80
2018-04-02T19:59:57.028Z,27.80
2018-04-02T20:03:00.807Z,27.60
2018-04-02T20:06:04.569Z,27.60
2018-04-02T20:09:08.347Z,27.30
2018-04-02T20:12:12.879Z,27.20
2018-04-02T20:15:17.379Z,27.20
2018-04-02T20:18:21.129Z,27.20
2018-04-02T20:21:24.869Z,27.20
2018-04-02T20:24:29.392Z,27.60
2018-04-02T20:27:33.162Z,27.60
2018-04-02T20:30:36.892Z,27.70
2018-04-02T20:33:40.659Z,27.40
2018-04-02T20:36:44.395Z,27.80
2018-04-02T20:39:48.159Z,27.60
2018-04-02T20:42:51.922Z,27.70
2018-04-02T20:45:55.709Z,27.60
2018-04-02T20:48:59.477Z,27.90
2018-04-02T20:52:03.220Z,27.90
2018-04-02T20:55:07.742Z,27.60
2018-04-02T20:58:11.503Z,27.60
2018-04-02T21:01:15.293Z,27.50
2018-04-02T21:04:19.059Z,27.50
2018-04-02T21:07:22.802Z,27.90
2018-04-02T21:10:26.645Z,27.30
2018-04-02T21:13:30.435Z,27.30
2018-04-02T21:16:34.492Z,27.20
2018-04-02T21:19:39.045Z,27.50
2018-04-02T21:22:42.854Z,27.50
2018-04-02T21:25:46.667Z,27.50
2018-04-02T21:28:50.462Z,27.60
2018-04-02T21:31:54.221Z,27.80
2018-04-02T21:34:57.976Z,28.10
2018-04-02T21:38:01.727Z,28.10
2018-04-02T21:41:05.483Z,28.30
2018-04-02T21:44:09.251Z,28.50
2018-04-02T21:47:13.756Z,28.60
2018-04-02T21:50:17.522Z,28.50
2018-04-02T21:53:22.055Z,28.40
2018-04-02T21:56:26.602Z,28.20
2018-04-02T21:59:30.381Z,28.20
2018-04-02T22:02:34.157Z,28.20
2018-04-02T22:05:38.686Z,28.10
2018-04-02T22:08:43.187Z,28.10
2018-04-02T22:11:46.951Z,28.10
2018-04-02T22:14:51.466Z,28.20
2018-04-02T22:17:55.203Z,28.10
2018-04-02T22:20:58.957Z,28.10
2018-04-02T22:24:02.710Z,28.10
2018-04-02T22:27:06.490Z,28.30
2018-04-02T22:30:11.015Z,28.30
2018-04-02T22:33:14.752Z,28.30
2018-04-02T22:36:19.279Z,28.40
2018-04-02T22:39:23.798Z,28.30
2018-04-02T22:42:27.555Z,28.20
2018-04-02T22:45:32.085Z,28.30
2018-04-02T22:48:35.818Z,28.30
2018-04-02T22:51:40.344Z,28.50
2018-04-02T22:54:44.091Z,28.40
2018-04-02T22:57:47.886Z,28.40
2018-04-02T23:00:51.753Z,28.40
2018-04-02T23:03:56.284Z,28.40
2018-04-02T23:07:00.047Z,28.50
2018-04-02T23:10:03.774Z,28.70
2018-04-02T23:13:07.549Z,28.70
2018-04-02T23:16:12.079Z,29.10
2018-04-02T23:19:15.809Z,29.10
2018-04-02T23:22:37.922Z,29.20
2018-04-02T23:25:41.680Z,29.20
2018-04-02T23:28:46.179Z,29.30
2018-04-02T23:31:49.937Z,29.30
2018-04-02T23:34:54.440Z,29.10
2018-04-02T23:37:58.220Z,29.00
2018-04-02T23:41:01.993Z,29.10
2018-04-02T23:44:05.766Z,29.30
2018-04-02T23:47:09.545Z,29.20
2018-04-02T23:50:13.373Z,29.20
2018-04-02T23:53:17.183Z,29.40
2018-04-02T23:56:20.967Z,29.50
2018-04-02T23:59:24.715Z,29.50
